sensor_id;sensor_type;location;lat;lon;timestamp;noise_LAeq;noise_LA_min;noise_LA_max;noise_LA01;noise_LA95
71020;Laerm;58902;51.436;5.980;2023-07-31T00:00:03;36.51;34.71;41.79;;
71020;Laerm;58902;51.436;5.980;2023-07-31T00:00:14;42.94;35.39;54.02;;
71020;Laerm;58902;51.436;5.980;2023-07-31T00:00:24;41.51;35.76;57.95;;
71020;Laerm;58902;51.436;5.980;2023-07-31T00:00:35;37.29;35.99;39.54;;
71020;Laerm;58902;51.436;5.980;2023-07-31T00:00:45;36.61;34.99;38.30;;
71020;Laerm;58902;51.436;5.980;2023-07-31T00:00:57;36.99;34.67;48.84;;
71020;Laerm;58902;51.436;5.980;2023-07-31T00:01:08;39.97;35.83;50.17;;
71020;Laerm;58902;51.436;5.980;2023-07-31T00:01:18;38.78;35.86;47.13;;
71020;Laerm;58902;51.436;5.980;2023-07-31T00:01:28;37.69;35.84;44.16;;
71020;Laerm;58902;51.436;5.980;2023-07-31T00:01:38;37.00;35.69;40.94;;
71020;Laerm;58902;51.436;5.980;2023-07-31T00:01:49;37.39;35.76;40.23;;
71020;Laerm;58902;51.436;5.980;2023-07-31T00:01:59;38.55;35.75;50.25;;
71020;Laerm;58902;51.436;5.980;2023-07-31T00:02:10;37.53;35.63;42.64;;
71020;Laerm;58902;51.436;5.980;2023-07-31T00:02:20;36.25;34.59;37.70;;
71020;Laerm;58902;51.436;5.980;2023-07-31T00:02:30;37.07;34.34;51.46;;
71020;Laerm;58902;51.436;5.980;2023-07-31T00:02:41;35.91;34.04;45.17;;
71020;Laerm;58902;51.436;5.980;2023-07-31T00:02:52;35.62;33.92;44.53;;
71020;Laerm;58902;51.436;5.980;2023-07-31T00:03:02;36.46;34.58;38.44;;
71020;Laerm;58902;51.436;5.980;2023-07-31T00:03:12;35.13;33.95;36.52;;
71020;Laerm;58902;51.436;5.980;2023-07-31T00:03:23;35.15;33.39;38.90;;
71020;Laerm;58902;51.436;5.980;2023-07-31T00:03:33;35.83;34.23;37.70;;
71020;Laerm;58902;51.436;5.980;2023-07-31T00:03:43;36.19;33.78;43.87;;
71020;Laerm;58902;51.436;5.980;2023-07-31T00:03:54;36.43;34.81;38.62;;
71020;Laerm;58902;51.436;5.980;2023-07-31T00:04:04;37.81;35.39;39.91;;
71020;Laerm;58902;51.436;5.980;2023-07-31T00:04:14;36.75;34.76;38.74;;
71020;Laerm;58902;51.436;5.980;2023-07-31T00:04:25;36.05;34.43;40.83;;
71020;Laerm;58902;51.436;5.980;2023-07-31T00:04:35;37.72;35.36;40.67;;
71020;Laerm;58902;51.436;5.980;2023-07-31T00:04:45;37.33;35.09;41.79;;
71020;Laerm;58902;51.436;5.980;2023-07-31T00:04:56;36.52;34.40;39.62;;
71020;Laerm;58902;51.436;5.980;2023-07-31T00:05:07;35.82;34.28;37.45;;
71020;Laerm;58902;51.436;5.980;2023-07-31T00:05:18;36.67;34.27;38.74;;
71020;Laerm;58902;51.436;5.980;2023-07-31T00:05:28;37.01;35.60;39.35;;
71020;Laerm;58902;51.436;5.980;2023-07-31T00:05:38;40.45;36.37;55.17;;
71020;Laerm;58902;51.436;5.980;2023-07-31T00:05:49;37.65;35.49;47.03;;
71020;Laerm;58902;51.436;5.980;2023-07-31T00:06:00;36.88;35.25;38.17;;
71020;Laerm;58902;51.436;5.980;2023-07-31T00:06:10;37.20;35.59;38.75;;
71020;Laerm;58902;51.436;5.980;2023-07-31T00:06:20;36.95;35.21;40.58;;
71020;Laerm;58902;51.436;5.980;2023-07-31T00:06:30;36.65;35.14;39.09;;
71020;Laerm;58902;51.436;5.980;2023-07-31T00:06:41;37.11;34.94;41.69;;
71020;Laerm;58902;51.436;5.980;2023-07-31T00:06:51;35.60;33.95;40.44;;
71020;Laerm;58902;51.436;5.980;2023-07-31T00:07:01;35.63;34.32;37.18;;
71020;Laerm;58902;51.436;5.980;2023-07-31T00:07:14;36.06;34.76;38.90;;
71020;Laerm;58902;51.436;5.980;2023-07-31T00:07:24;40.87;35.04;60.36;;
71020;Laerm;58902;51.436;5.980;2023-07-31T00:07:35;37.47;35.25;41.80;;
71020;Laerm;58902;51.436;5.980;2023-07-31T00:07:45;36.72;35.03;44.47;;
71020;Laerm;58902;51.436;5.980;2023-07-31T00:07:55;37.05;34.68;45.35;;
71020;Laerm;58902;51.436;5.980;2023-07-31T00:08:06;36.74;34.66;44.02;;
71020;Laerm;58902;51.436;5.980;2023-07-31T00:08:16;36.13;34.60;40.56;;
71020;Laerm;58902;51.436;5.980;2023-07-31T00:08:26;35.37;33.42;39.30;;
71020;Laerm;58902;51.436;5.980;2023-07-31T00:08:37;35.59;33.82;40.92;;
71020;Laerm;58902;51.436;5.980;2023-07-31T00:08:47;36.25;34.37;38.37;;
71020;Laerm;58902;51.436;5.980;2023-07-31T00:08:57;35.74;34.34;38.25;;
71020;Laerm;58902;51.436;5.980;2023-07-31T00:09:08;34.83;33.03;36.97;;
71020;Laerm;58902;51.436;5.980;2023-07-31T00:09:18;34.57;32.96;39.33;;
71020;Laerm;58902;51.436;5.980;2023-07-31T00:09:28;35.06;33.53;37.01;;
71020;Laerm;58902;51.436;5.980;2023-07-31T00:09:42;36.09;33.98;41.95;;
71020;Laerm;58902;51.436;5.980;2023-07-31T00:09:52;37.89;34.56;53.44;;
71020;Laerm;58902;51.436;5.980;2023-07-31T00:10:03;36.87;34.04;47.26;;
71020;Laerm;58902;51.436;5.980;2023-07-31T00:10:14;36.56;34.07;46.95;;
71020;Laerm;58902;51.436;5.980;2023-07-31T00:10:24;36.14;34.36;40.70;;
71020;Laerm;58902;51.436;5.980;2023-07-31T00:10:34;40.40;35.20;57.77;;
71020;Laerm;58902;51.436;5.980;2023-07-31T00:10:45;38.27;34.56;42.35;;
71020;Laerm;58902;51.436;5.980;2023-07-31T00:10:55;38.08;34.58;40.60;;
71020;Laerm;58902;51.436;5.980;2023-07-31T00:11:05;38.74;36.07;41.79;;
71020;Laerm;58902;51.436;5.980;2023-07-31T00:11:16;47.56;36.09;60.07;;
71020;Laerm;58902;51.436;5.980;2023-07-31T00:11:26;47.57;35.11;61.62;;
71020;Laerm;58902;51.436;5.980;2023-07-31T00:11:37;40.22;34.43;56.87;;
71020;Laerm;58902;51.436;5.980;2023-07-31T00:11:47;36.56;34.52;47.81;;
71020;Laerm;58902;51.436;5.980;2023-07-31T00:11:57;36.48;33.74;49.63;;
71020;Laerm;58902;51.436;5.980;2023-07-31T00:12:08;35.56;34.06;38.44;;
71020;Laerm;58902;51.436;5.980;2023-07-31T00:12:18;36.50;34.10;40.77;;
71020;Laerm;58902;51.436;5.980;2023-07-31T00:12:28;36.51;34.22;43.60;;
71020;Laerm;58902;51.436;5.980;2023-07-31T00:12:40;35.79;33.70;41.47;;
71020;Laerm;58902;51.436;5.980;2023-07-31T00:12:51;37.07;33.95;45.97;;
71020;Laerm;58902;51.436;5.980;2023-07-31T00:13:01;35.39;32.95;40.74;;
71020;Laerm;58902;51.436;5.980;2023-07-31T00:13:11;35.36;33.15;42.94;;
71020;Laerm;58902;51.436;5.980;2023-07-31T00:13:22;35.78;33.36;49.23;;
71020;Laerm;58902;51.436;5.980;2023-07-31T00:13:32;35.23;33.43;41.17;;
71020;Laerm;58902;51.436;5.980;2023-07-31T00:13:42;34.48;33.09;36.54;;
71020;Laerm;58902;51.436;5.980;2023-07-31T00:13:53;34.73;33.15;36.97;;
71020;Laerm;58902;51.436;5.980;2023-07-31T00:14:03;34.68;32.81;36.55;;
71020;Laerm;58902;51.436;5.980;2023-07-31T00:14:14;35.03;33.24;37.21;;
71020;Laerm;58902;51.436;5.980;2023-07-31T00:14:24;35.55;33.95;40.86;;
71020;Laerm;58902;51.436;5.980;2023-07-31T00:14:34;36.10;34.01;38.59;;
71020;Laerm;58902;51.436;5.980;2023-07-31T00:14:45;37.56;36.07;39.32;;
71020;Laerm;58902;51.436;5.980;2023-07-31T00:14:55;36.30;33.61;40.88;;
71020;Laerm;58902;51.436;5.980;2023-07-31T00:15:06;36.12;34.15;43.53;;
71020;Laerm;58902;51.436;5.980;2023-07-31T00:15:17;35.97;34.57;37.82;;
71020;Laerm;58902;51.436;5.980;2023-07-31T00:15:27;36.18;34.43;39.49;;
71020;Laerm;58902;51.436;5.980;2023-07-31T00:15:38;36.49;35.20;38.00;;
71020;Laerm;58902;51.436;5.980;2023-07-31T00:15:48;37.40;35.58;41.34;;
71020;Laerm;58902;51.436;5.980;2023-07-31T00:15:59;37.54;35.10;44.62;;
71020;Laerm;58902;51.436;5.980;2023-07-31T00:16:12;38.01;35.38;45.97;;
71020;Laerm;58902;51.436;5.980;2023-07-31T00:16:22;38.87;36.05;47.60;;
71020;Laerm;58902;51.436;5.980;2023-07-31T00:16:32;39.05;36.88;43.37;;
71020;Laerm;58902;51.436;5.980;2023-07-31T00:16:43;38.49;35.79;47.02;;
71020;Laerm;58902;51.436;5.980;2023-07-31T00:16:53;35.80;33.92;39.43;;
71020;Laerm;58902;51.436;5.980;2023-07-31T00:17:03;35.29;33.32;36.93;;
71020;Laerm;58902;51.436;5.980;2023-07-31T00:17:14;35.40;33.66;40.40;;
71020;Laerm;58902;51.436;5.980;2023-07-31T00:17:24;35.44;33.55;37.08;;
71020;Laerm;58902;51.436;5.980;2023-07-31T00:17:35;35.49;34.02;37.77;;
71020;Laerm;58902;51.436;5.980;2023-07-31T00:17:46;36.13;34.29;39.59;;
71020;Laerm;58902;51.436;5.980;2023-07-31T00:17:57;36.79;34.88;39.93;;
71020;Laerm;58902;51.436;5.980;2023-07-31T00:18:08;36.14;33.65;44.71;;
71020;Laerm;58902;51.436;5.980;2023-07-31T00:18:18;35.85;34.25;38.65;;
71020;Laerm;58902;51.436;5.980;2023-07-31T00:18:28;36.77;34.73;41.85;;
71020;Laerm;58902;51.436;5.980;2023-07-31T00:18:38;37.57;34.19;46.68;;
71020;Laerm;58902;51.436;5.980;2023-07-31T00:18:50;36.66;35.07;40.23;;
71020;Laerm;58902;51.436;5.980;2023-07-31T00:19:00;37.68;35.32;44.77;;
71020;Laerm;58902;51.436;5.980;2023-07-31T00:19:10;36.91;35.16;41.83;;
71020;Laerm;58902;51.436;5.980;2023-07-31T00:19:21;35.70;33.88;43.72;;
71020;Laerm;58902;51.436;5.980;2023-07-31T00:19:31;35.32;33.47;37.08;;
71020;Laerm;58902;51.436;5.980;2023-07-31T00:19:41;37.48;36.06;39.16;;
71020;Laerm;58902;51.436;5.980;2023-07-31T00:19:52;37.70;35.71;40.89;;
71020;Laerm;58902;51.436;5.980;2023-07-31T00:20:02;35.55;34.04;37.90;;
71020;Laerm;58902;51.436;5.980;2023-07-31T00:20:12;35.13;33.45;38.62;;
71020;Laerm;58902;51.436;5.980;2023-07-31T00:20:23;35.80;34.03;40.33;;
71020;Laerm;58902;51.436;5.980;2023-07-31T00:20:33;35.82;34.33;41.52;;
71020;Laerm;58902;51.436;5.980;2023-07-31T00:20:43;36.18;33.51;43.52;;
71020;Laerm;58902;51.436;5.980;2023-07-31T00:20:54;40.62;34.10;60.03;;
71020;Laerm;58902;51.436;5.980;2023-07-31T00:21:04;37.18;33.95;50.43;;
71020;Laerm;58902;51.436;5.980;2023-07-31T00:21:14;35.39;33.43;39.30;;
71020;Laerm;58902;51.436;5.980;2023-07-31T00:21:25;36.18;34.07;46.49;;
71020;Laerm;58902;51.436;5.980;2023-07-31T00:21:35;36.04;34.27;40.62;;
71020;Laerm;58902;51.436;5.980;2023-07-31T00:21:45;35.98;33.85;45.22;;
71020;Laerm;58902;51.436;5.980;2023-07-31T00:21:56;35.81;34.32;39.05;;
71020;Laerm;58902;51.436;5.980;2023-07-31T00:22:06;36.10;33.83;40.98;;
71020;Laerm;58902;51.436;5.980;2023-07-31T00:22:16;36.29;34.45;40.00;;
71020;Laerm;58902;51.436;5.980;2023-07-31T00:22:27;34.82;33.11;39.63;;
71020;Laerm;58902;51.436;5.980;2023-07-31T00:22:37;34.66;32.03;42.56;;
71020;Laerm;58902;51.436;5.980;2023-07-31T00:22:47;34.43;32.50;38.59;;
71020;Laerm;58902;51.436;5.980;2023-07-31T00:22:58;34.27;32.54;42.77;;
71020;Laerm;58902;51.436;5.980;2023-07-31T00:23:08;35.19;32.75;43.16;;
71020;Laerm;58902;51.436;5.980;2023-07-31T00:23:18;38.60;32.43;54.69;;
71020;Laerm;58902;51.436;5.980;2023-07-31T00:23:29;34.72;32.90;40.26;;
71020;Laerm;58902;51.436;5.980;2023-07-31T00:23:42;35.24;33.48;45.21;;
71020;Laerm;58902;51.436;5.980;2023-07-31T00:23:52;34.63;32.75;37.44;;
71020;Laerm;58902;51.436;5.980;2023-07-31T00:24:03;34.98;33.07;41.16;;
71020;Laerm;58902;51.436;5.980;2023-07-31T00:24:13;35.22;33.14;43.62;;
71020;Laerm;58902;51.436;5.980;2023-07-31T00:24:23;34.00;32.71;36.53;;
71020;Laerm;58902;51.436;5.980;2023-07-31T00:24:34;34.53;33.12;35.85;;
71020;Laerm;58902;51.436;5.980;2023-07-31T00:24:44;34.49;33.02;36.84;;
71020;Laerm;58902;51.436;5.980;2023-07-31T00:24:55;35.00;33.59;39.78;;
71020;Laerm;58902;51.436;5.980;2023-07-31T00:25:06;35.38;33.50;38.12;;
71020;Laerm;58902;51.436;5.980;2023-07-31T00:25:16;34.97;33.53;37.80;;
71020;Laerm;58902;51.436;5.980;2023-07-31T00:25:26;34.68;32.94;36.82;;
71020;Laerm;58902;51.436;5.980;2023-07-31T00:25:37;36.01;33.87;42.81;;
71020;Laerm;58902;51.436;5.980;2023-07-31T00:25:47;35.73;33.17;45.97;;
71020;Laerm;58902;51.436;5.980;2023-07-31T00:25:57;35.09;33.82;37.14;;
71020;Laerm;58902;51.436;5.980;2023-07-31T00:26:08;35.48;33.66;42.23;;
71020;Laerm;58902;51.436;5.980;2023-07-31T00:26:18;35.52;33.81;41.98;;
71020;Laerm;58902;51.436;5.980;2023-07-31T00:26:29;35.57;34.25;37.65;;
71020;Laerm;58902;51.436;5.980;2023-07-31T00:26:39;35.44;33.33;39.00;;
71020;Laerm;58902;51.436;5.980;2023-07-31T00:26:49;37.10;33.85;40.36;;
71020;Laerm;58902;51.436;5.980;2023-07-31T00:27:00;35.94;33.90;37.70;;
71020;Laerm;58902;51.436;5.980;2023-07-31T00:27:10;35.07;33.23;41.76;;
71020;Laerm;58902;51.436;5.980;2023-07-31T00:27:21;37.28;33.58;42.84;;
71020;Laerm;58902;51.436;5.980;2023-07-31T00:27:31;38.99;36.92;42.59;;
71020;Laerm;58902;51.436;5.980;2023-07-31T00:27:41;40.51;36.46;48.77;;
71020;Laerm;58902;51.436;5.980;2023-07-31T00:27:54;37.26;34.78;48.95;;
71020;Laerm;58902;51.436;5.980;2023-07-31T00:28:04;36.84;35.20;39.75;;
71020;Laerm;58902;51.436;5.980;2023-07-31T00:28:15;37.84;35.26;50.42;;
71020;Laerm;58902;51.436;5.980;2023-07-31T00:28:25;36.96;35.52;39.63;;
71020;Laerm;58902;51.436;5.980;2023-07-31T00:28:35;36.65;35.11;38.41;;
71020;Laerm;58902;51.436;5.980;2023-07-31T00:28:46;36.70;35.14;40.64;;
71020;Laerm;58902;51.436;5.980;2023-07-31T00:28:56;35.99;34.33;37.45;;
71020;Laerm;58902;51.436;5.980;2023-07-31T00:29:06;35.89;34.47;40.33;;
71020;Laerm;58902;51.436;5.980;2023-07-31T00:29:17;37.54;34.21;45.71;;
71020;Laerm;58902;51.436;5.980;2023-07-31T00:29:27;38.41;33.28;53.46;;
71020;Laerm;58902;51.436;5.980;2023-07-31T00:29:37;34.99;33.64;38.10;;
71020;Laerm;58902;51.436;5.980;2023-07-31T00:29:47;36.00;33.88;38.02;;
71020;Laerm;58902;51.436;5.980;2023-07-31T00:29:58;39.36;34.87;43.46;;
71020;Laerm;58902;51.436;5.980;2023-07-31T00:30:08;41.96;38.72;45.14;;
71020;Laerm;58902;51.436;5.980;2023-07-31T00:30:19;38.21;34.97;41.14;;
71020;Laerm;58902;51.436;5.980;2023-07-31T00:30:29;36.09;34.53;38.90;;
71020;Laerm;58902;51.436;5.980;2023-07-31T00:30:39;36.03;34.27;41.50;;
71020;Laerm;58902;51.436;5.980;2023-07-31T00:30:50;35.78;34.26;37.13;;
71020;Laerm;58902;51.436;5.980;2023-07-31T00:31:00;36.72;34.89;38.04;;
71020;Laerm;58902;51.436;5.980;2023-07-31T00:31:12;39.92;33.02;53.74;;
71020;Laerm;58902;51.436;5.980;2023-07-31T00:31:22;36.55;34.64;40.17;;
71020;Laerm;58902;51.436;5.980;2023-07-31T00:31:32;36.37;34.75;38.16;;
71020;Laerm;58902;51.436;5.980;2023-07-31T00:31:43;35.39;33.84;37.70;;
71020;Laerm;58902;51.436;5.980;2023-07-31T00:31:53;35.87;34.34;37.71;;
71020;Laerm;58902;51.436;5.980;2023-07-31T00:32:03;35.75;34.43;37.06;;
71020;Laerm;58902;51.436;5.980;2023-07-31T00:32:14;35.58;33.96;38.81;;
71020;Laerm;58902;51.436;5.980;2023-07-31T00:32:24;36.32;34.85;38.42;;
71020;Laerm;58902;51.436;5.980;2023-07-31T00:32:35;40.33;34.71;57.03;;
71020;Laerm;58902;51.436;5.980;2023-07-31T00:32:45;36.15;34.08;43.01;;
71020;Laerm;58902;51.436;5.980;2023-07-31T00:32:55;35.58;34.21;43.86;;
71020;Laerm;58902;51.436;5.980;2023-07-31T00:33:06;35.30;33.63;38.76;;
71020;Laerm;58902;51.436;5.980;2023-07-31T00:33:16;35.13;33.30;37.32;;
71020;Laerm;58902;51.436;5.980;2023-07-31T00:33:26;36.03;34.59;37.33;;
71020;Laerm;58902;51.436;5.980;2023-07-31T00:33:37;34.97;33.63;38.00;;
71020;Laerm;58902;51.436;5.980;2023-07-31T00:33:47;34.49;32.79;38.19;;
71020;Laerm;58902;51.436;5.980;2023-07-31T00:33:58;34.46;32.74;36.91;;
71020;Laerm;58902;51.436;5.980;2023-07-31T00:34:08;34.06;32.49;35.64;;
71020;Laerm;58902;51.436;5.980;2023-07-31T00:34:19;33.93;31.98;35.38;;
71020;Laerm;58902;51.436;5.980;2023-07-31T00:34:29;34.40;32.95;35.88;;
71020;Laerm;58902;51.436;5.980;2023-07-31T00:34:42;35.04;33.51;36.30;;
71020;Laerm;58902;51.436;5.980;2023-07-31T00:34:52;35.64;34.29;36.90;;
71020;Laerm;58902;51.436;5.980;2023-07-31T00:35:03;34.57;32.44;36.54;;
71020;Laerm;58902;51.436;5.980;2023-07-31T00:35:13;33.81;32.40;35.08;;
71020;Laerm;58902;51.436;5.980;2023-07-31T00:35:23;33.23;31.69;35.14;;
71020;Laerm;58902;51.436;5.980;2023-07-31T00:35:34;32.99;31.61;37.84;;
71020;Laerm;58902;51.436;5.980;2023-07-31T00:35:44;33.89;32.27;36.51;;
71020;Laerm;58902;51.436;5.980;2023-07-31T00:35:54;33.86;32.18;40.42;;
71020;Laerm;58902;51.436;5.980;2023-07-31T00:36:05;33.36;31.93;36.85;;
71020;Laerm;58902;51.436;5.980;2023-07-31T00:36:15;34.99;31.68;49.08;;
71020;Laerm;58902;51.436;5.980;2023-07-31T00:36:25;33.13;31.64;34.59;;
71020;Laerm;58902;51.436;5.980;2023-07-31T00:36:36;33.36;32.02;34.77;;
71020;Laerm;58902;51.436;5.980;2023-07-31T00:36:46;34.80;32.31;45.65;;
71020;Laerm;58902;51.436;5.980;2023-07-31T00:36:56;34.15;32.19;41.05;;
71020;Laerm;58902;51.436;5.980;2023-07-31T00:37:07;33.81;32.40;36.83;;
71020;Laerm;58902;51.436;5.980;2023-07-31T00:37:17;33.96;32.22;36.07;;
71020;Laerm;58902;51.436;5.980;2023-07-31T00:37:27;34.55;33.27;37.83;;
71020;Laerm;58902;51.436;5.980;2023-07-31T00:37:38;36.79;33.58;44.82;;
71020;Laerm;58902;51.436;5.980;2023-07-31T00:37:48;41.19;36.61;53.96;;
71020;Laerm;58902;51.436;5.980;2023-07-31T00:37:58;37.30;33.38;49.39;;
71020;Laerm;58902;51.436;5.980;2023-07-31T00:38:12;34.63;32.82;39.87;;
71020;Laerm;58902;51.436;5.980;2023-07-31T00:38:22;34.91;32.79;45.23;;
71020;Laerm;58902;51.436;5.980;2023-07-31T00:38:32;34.77;33.30;38.22;;
71020;Laerm;58902;51.436;5.980;2023-07-31T00:38:43;35.18;33.55;37.14;;
71020;Laerm;58902;51.436;5.980;2023-07-31T00:38:53;35.33;33.30;38.41;;
71020;Laerm;58902;51.436;5.980;2023-07-31T00:39:03;35.76;34.37;37.70;;
71020;Laerm;58902;51.436;5.980;2023-07-31T00:39:14;35.89;33.86;40.62;;
71020;Laerm;58902;51.436;5.980;2023-07-31T00:39:25;36.19;33.53;38.00;;
71020;Laerm;58902;51.436;5.980;2023-07-31T00:39:35;35.65;33.87;37.26;;
71020;Laerm;58902;51.436;5.980;2023-07-31T00:39:46;36.03;33.85;38.40;;
71020;Laerm;58902;51.436;5.980;2023-07-31T00:39:56;39.35;36.33;48.52;;
71020;Laerm;58902;51.436;5.980;2023-07-31T00:40:06;40.69;36.44;54.23;;
71020;Laerm;58902;51.436;5.980;2023-07-31T00:40:17;37.22;34.93;43.83;;
71020;Laerm;58902;51.436;5.980;2023-07-31T00:40:27;37.65;34.39;48.77;;
71020;Laerm;58902;51.436;5.980;2023-07-31T00:40:38;36.59;34.94;38.50;;
71020;Laerm;58902;51.436;5.980;2023-07-31T00:40:48;35.26;34.05;36.59;;
71020;Laerm;58902;51.436;5.980;2023-07-31T00:40:58;37.10;35.08;45.56;;
71020;Laerm;58902;51.436;5.980;2023-07-31T00:41:09;37.89;35.38;43.93;;
71020;Laerm;58902;51.436;5.980;2023-07-31T00:41:19;43.34;35.45;58.56;;
71020;Laerm;58902;51.436;5.980;2023-07-31T00:41:30;42.03;35.28;58.12;;
71020;Laerm;58902;51.436;5.980;2023-07-31T00:41:40;36.09;34.43;40.54;;
71020;Laerm;58902;51.436;5.980;2023-07-31T00:41:50;35.85;34.70;38.11;;
71020;Laerm;58902;51.436;5.980;2023-07-31T00:42:01;35.97;34.09;41.80;;
71020;Laerm;58902;51.436;5.980;2023-07-31T00:42:11;36.40;33.54;40.86;;
71020;Laerm;58902;51.436;5.980;2023-07-31T00:42:21;38.36;36.19;41.49;;
71020;Laerm;58902;51.436;5.980;2023-07-31T00:42:32;36.35;34.68;42.41;;
71020;Laerm;58902;51.436;5.980;2023-07-31T00:42:42;35.08;32.77;37.78;;
71020;Laerm;58902;51.436;5.980;2023-07-31T00:42:52;34.70;33.13;36.49;;
71020;Laerm;58902;51.436;5.980;2023-07-31T00:43:03;34.96;33.29;37.14;;
71020;Laerm;58902;51.436;5.980;2023-07-31T00:43:13;40.50;33.80;53.07;;
71020;Laerm;58902;51.436;5.980;2023-07-31T00:43:24;37.60;35.88;39.23;;
71020;Laerm;58902;51.436;5.980;2023-07-31T00:43:35;35.91;34.20;39.01;;
71020;Laerm;58902;51.436;5.980;2023-07-31T00:43:45;35.62;32.97;43.34;;
71020;Laerm;58902;51.436;5.980;2023-07-31T00:43:55;34.90;33.13;38.33;;
71020;Laerm;58902;51.436;5.980;2023-07-31T00:44:05;35.77;33.19;39.55;;
71020;Laerm;58902;51.436;5.980;2023-07-31T00:44:16;35.40;33.59;38.40;;
71020;Laerm;58902;51.436;5.980;2023-07-31T00:44:26;35.94;34.23;38.91;;
71020;Laerm;58902;51.436;5.980;2023-07-31T00:44:36;34.96;33.32;36.72;;
71020;Laerm;58902;51.436;5.980;2023-07-31T00:44:47;35.48;33.74;36.90;;
71020;Laerm;58902;51.436;5.980;2023-07-31T00:44:57;35.46;33.97;37.41;;
71020;Laerm;58902;51.436;5.980;2023-07-31T00:45:07;33.97;32.21;35.81;;
71020;Laerm;58902;51.436;5.980;2023-07-31T00:45:18;34.22;32.26;36.85;;
71020;Laerm;58902;51.436;5.980;2023-07-31T00:45:28;35.99;33.70;38.50;;
71020;Laerm;58902;51.436;5.980;2023-07-31T00:45:41;34.77;33.39;37.25;;
71020;Laerm;58902;51.436;5.980;2023-07-31T00:45:52;35.04;33.39;36.61;;
71020;Laerm;58902;51.436;5.980;2023-07-31T00:46:02;34.24;32.60;35.99;;
71020;Laerm;58902;51.436;5.980;2023-07-31T00:46:12;36.97;32.99;49.48;;
71020;Laerm;58902;51.436;5.980;2023-07-31T00:46:23;43.80;33.96;56.83;;
71020;Laerm;58902;51.436;5.980;2023-07-31T00:46:33;35.28;32.69;48.41;;
71020;Laerm;58902;51.436;5.980;2023-07-31T00:46:44;33.39;31.96;36.76;;
71020;Laerm;58902;51.436;5.980;2023-07-31T00:46:54;34.80;33.20;37.86;;
71020;Laerm;58902;51.436;5.980;2023-07-31T00:47:06;36.26;34.44;46.82;;
71020;Laerm;58902;51.436;5.980;2023-07-31T00:47:16;39.25;34.80;52.93;;
71020;Laerm;58902;51.436;5.980;2023-07-31T00:47:26;36.52;34.86;38.01;;
71020;Laerm;58902;51.436;5.980;2023-07-31T00:47:37;36.73;35.15;38.58;;
71020;Laerm;58902;51.436;5.980;2023-07-31T00:47:47;35.92;34.28;37.20;;
71020;Laerm;58902;51.436;5.980;2023-07-31T00:47:58;34.78;33.36;36.31;;
71020;Laerm;58902;51.436;5.980;2023-07-31T00:48:08;36.65;34.19;39.23;;
71020;Laerm;58902;51.436;5.980;2023-07-31T00:48:18;37.65;35.90;39.06;;
71020;Laerm;58902;51.436;5.980;2023-07-31T00:48:29;36.73;34.89;38.00;;
71020;Laerm;58902;51.436;5.980;2023-07-31T00:48:40;37.73;34.84;39.77;;
71020;Laerm;58902;51.436;5.980;2023-07-31T00:48:50;35.52;33.73;37.69;;
71020;Laerm;58902;51.436;5.980;2023-07-31T00:49:00;35.05;33.74;37.61;;
71020;Laerm;58902;51.436;5.980;2023-07-31T00:49:11;36.93;34.60;44.37;;
71020;Laerm;58902;51.436;5.980;2023-07-31T00:49:22;36.16;33.78;39.06;;
71020;Laerm;58902;51.436;5.980;2023-07-31T00:49:32;37.10;34.85;46.57;;
71020;Laerm;58902;51.436;5.980;2023-07-31T00:49:43;39.06;35.70;44.10;;
71020;Laerm;58902;51.436;5.980;2023-07-31T00:49:53;37.82;35.37;48.24;;
71020;Laerm;58902;51.436;5.980;2023-07-31T00:50:04;38.82;35.66;50.55;;
71020;Laerm;58902;51.436;5.980;2023-07-31T00:50:15;37.87;35.31;43.63;;
71020;Laerm;58902;51.436;5.980;2023-07-31T00:50:25;37.98;35.40;46.52;;
71020;Laerm;58902;51.436;5.980;2023-07-31T00:50:36;37.74;36.20;39.44;;
71020;Laerm;58902;51.436;5.980;2023-07-31T00:50:47;37.00;34.89;38.95;;
71020;Laerm;58902;51.436;5.980;2023-07-31T00:50:58;37.45;35.62;38.88;;
71020;Laerm;58902;51.436;5.980;2023-07-31T00:51:08;37.31;35.93;42.90;;
71020;Laerm;58902;51.436;5.980;2023-07-31T00:51:19;37.09;35.33;41.92;;
71020;Laerm;58902;51.436;5.980;2023-07-31T00:51:29;36.70;34.47;38.48;;
71020;Laerm;58902;51.436;5.980;2023-07-31T00:51:40;36.61;34.76;38.13;;
71020;Laerm;58902;51.436;5.980;2023-07-31T00:51:50;36.86;34.71;50.25;;
71020;Laerm;58902;51.436;5.980;2023-07-31T00:52:00;37.12;35.14;42.40;;
71020;Laerm;58902;51.436;5.980;2023-07-31T00:52:12;38.10;35.79;54.05;;
71020;Laerm;58902;51.436;5.980;2023-07-31T00:52:23;36.17;34.48;38.43;;
71020;Laerm;58902;51.436;5.980;2023-07-31T00:52:33;36.00;34.61;40.96;;
71020;Laerm;58902;51.436;5.980;2023-07-31T00:52:43;36.26;34.95;40.15;;
71020;Laerm;58902;51.436;5.980;2023-07-31T00:52:54;36.62;35.51;37.87;;
71020;Laerm;58902;51.436;5.980;2023-07-31T00:53:04;38.21;36.67;41.65;;
71020;Laerm;58902;51.436;5.980;2023-07-31T00:53:15;38.05;36.64;39.55;;
71020;Laerm;58902;51.436;5.980;2023-07-31T00:53:25;37.10;35.29;39.15;;
71020;Laerm;58902;51.436;5.980;2023-07-31T00:53:36;36.29;34.57;38.07;;
71020;Laerm;58902;51.436;5.980;2023-07-31T00:53:46;36.73;35.05;38.71;;
71020;Laerm;58902;51.436;5.980;2023-07-31T00:53:57;37.83;36.13;40.01;;
71020;Laerm;58902;51.436;5.980;2023-07-31T00:54:08;36.36;33.92;39.45;;
71020;Laerm;58902;51.436;5.980;2023-07-31T00:54:18;35.66;33.84;38.00;;
71020;Laerm;58902;51.436;5.980;2023-07-31T00:54:28;36.22;34.40;42.69;;
71020;Laerm;58902;51.436;5.980;2023-07-31T00:54:39;35.31;33.76;37.18;;
71020;Laerm;58902;51.436;5.980;2023-07-31T00:54:50;36.15;34.82;37.29;;
71020;Laerm;58902;51.436;5.980;2023-07-31T00:55:00;34.83;33.48;36.06;;
71020;Laerm;58902;51.436;5.980;2023-07-31T00:55:10;35.18;33.24;37.33;;
71020;Laerm;58902;51.436;5.980;2023-07-31T00:55:21;36.46;34.54;39.09;;
71020;Laerm;58902;51.436;5.980;2023-07-31T00:55:31;37.85;36.27;39.81;;
71020;Laerm;58902;51.436;5.980;2023-07-31T00:55:42;37.90;35.74;39.63;;
71020;Laerm;58902;51.436;5.980;2023-07-31T00:55:52;36.01;34.73;37.73;;
71020;Laerm;58902;51.436;5.980;2023-07-31T00:56:03;35.84;34.30;37.41;;
71020;Laerm;58902;51.436;5.980;2023-07-31T00:56:14;39.25;34.89;51.28;;
71020;Laerm;58902;51.436;5.980;2023-07-31T00:56:24;40.26;38.36;46.55;;
71020;Laerm;58902;51.436;5.980;2023-07-31T00:56:35;40.03;36.76;50.56;;
71020;Laerm;58902;51.436;5.980;2023-07-31T00:56:45;40.07;35.14;57.82;;
71020;Laerm;58902;51.436;5.980;2023-07-31T00:56:58;37.98;34.31;50.86;;
71020;Laerm;58902;51.436;5.980;2023-07-31T00:57:09;37.99;35.92;42.69;;
71020;Laerm;58902;51.436;5.980;2023-07-31T00:57:20;37.57;35.02;50.84;;
71020;Laerm;58902;51.436;5.980;2023-07-31T00:57:31;37.41;35.01;40.72;;
71020;Laerm;58902;51.436;5.980;2023-07-31T00:57:42;39.44;35.27;46.28;;
71020;Laerm;58902;51.436;5.980;2023-07-31T00:57:55;36.45;34.22;39.26;;
71020;Laerm;58902;51.436;5.980;2023-07-31T00:58:05;35.10;33.66;36.48;;
71020;Laerm;58902;51.436;5.980;2023-07-31T00:58:16;34.19;32.10;37.11;;
71020;Laerm;58902;51.436;5.980;2023-07-31T00:58:26;37.18;32.66;54.96;;
71020;Laerm;58902;51.436;5.980;2023-07-31T00:58:36;43.17;33.63;59.90;;
71020;Laerm;58902;51.436;5.980;2023-07-31T00:58:47;34.95;33.49;39.56;;